sensor_id;sensor_type;location;lat;lon;timestamp;temperature;humidity
752;DHT22;360;48.764;9.164;2023-03-11T00:00:40;3.70;99.90
752;DHT22;360;48.764;9.164;2023-03-11T00:03:08;3.70;99.90
752;DHT22;360;48.764;9.164;2023-03-11T00:05:38;3.70;99.90
752;DHT22;360;48.764;9.164;2023-03-11T00:08:07;3.60;99.90
752;DHT22;360;48.764;9.164;2023-03-11T00:10:36;3.60;99.90
752;DHT22;360;48.764;9.164;2023-03-11T00:13:04;3.50;99.90
752;DHT22;360;48.764;9.164;2023-03-11T00:15:32;3.50;99.90
752;DHT22;360;48.764;9.164;2023-03-11T00:17:59;3.60;99.90
752;DHT22;360;48.764;9.164;2023-03-11T00:20:28;3.60;99.90
752;DHT22;360;48.764;9.164;2023-03-11T00:22:57;3.70;99.90
752;DHT22;360;48.764;9.164;2023-03-11T00:25:27;3.60;99.90
752;DHT22;360;48.764;9.164;2023-03-11T00:27:55;3.60;99.90
752;DHT22;360;48.764;9.164;2023-03-11T00:30:23;3.60;99.90
752;DHT22;360;48.764;9.164;2023-03-11T00:32:51;3.70;99.90
752;DHT22;360;48.764;9.164;2023-03-11T00:35:20;3.70;99.90
752;DHT22;360;48.764;9.164;2023-03-11T00:37:47;3.70;99.90
752;DHT22;360;48.764;9.164;2023-03-11T00:40:17;3.80;99.90
752;DHT22;360;48.764;9.164;2023-03-11T00:42:45;3.80;99.90
752;DHT22;360;48.764;9.164;2023-03-11T00:45:13;3.70;99.90
752;DHT22;360;48.764;9.164;2023-03-11T00:47:39;3.80;99.90
752;DHT22;360;48.764;9.164;2023-03-11T00:50:08;3.90;99.90
752;DHT22;360;48.764;9.164;2023-03-11T00:52:36;4.00;99.90
752;DHT22;360;48.764;9.164;2023-03-11T00:55:04;4.30;99.90
752;DHT22;360;48.764;9.164;2023-03-11T00:57:32;4.30;99.90
752;DHT22;360;48.764;9.164;2023-03-11T00:59:59;4.00;99.90
752;DHT22;360;48.764;9.164;2023-03-11T01:02:26;4.00;99.90
752;DHT22;360;48.764;9.164;2023-03-11T01:04:53;4.00;99.90
752;DHT22;360;48.764;9.164;2023-03-11T01:07:20;3.90;99.90
752;DHT22;360;48.764;9.164;2023-03-11T01:09:47;3.80;99.90
752;DHT22;360;48.764;9.164;2023-03-11T01:12:13;3.90;99.90
752;DHT22;360;48.764;9.164;2023-03-11T01:14:42;3.80;99.90
752;DHT22;360;48.764;9.164;2023-03-11T01:17:09;3.90;99.90
752;DHT22;360;48.764;9.164;2023-03-11T01:19:36;3.90;1.00
752;DHT22;360;48.764;9.164;2023-03-11T01:22:03;3.80;1.00
752;DHT22;360;48.764;9.164;2023-03-11T01:24:30;3.90;1.00
752;DHT22;360;48.764;9.164;2023-03-11T01:26:56;3.70;1.00
752;DHT22;360;48.764;9.164;2023-03-11T01:29:23;3.60;1.00
752;DHT22;360;48.764;9.164;2023-03-11T01:31:51;3.50;1.00
752;DHT22;360;48.764;9.164;2023-03-11T01:34:18;3.50;1.00
752;DHT22;360;48.764;9.164;2023-03-11T01:36:45;3.40;1.00
752;DHT22;360;48.764;9.164;2023-03-11T01:39:12;3.40;99.90
752;DHT22;360;48.764;9.164;2023-03-11T01:41:38;3.30;99.90
752;DHT22;360;48.764;9.164;2023-03-11T01:44:05;3.20;1.00
752;DHT22;360;48.764;9.164;2023-03-11T01:46:36;3.20;1.00
752;DHT22;360;48.764;9.164;2023-03-11T01:49:07;3.10;1.00
752;DHT22;360;48.764;9.164;2023-03-11T01:51:40;3.00;99.90
752;DHT22;360;48.764;9.164;2023-03-11T01:54:10;3.10;1.00
752;DHT22;360;48.764;9.164;2023-03-11T01:56:38;3.10;99.90
752;DHT22;360;48.764;9.164;2023-03-11T01:59:07;3.10;99.90
752;DHT22;360;48.764;9.164;2023-03-11T02:01:35;3.10;99.90
752;DHT22;360;48.764;9.164;2023-03-11T02:04:09;3.00;99.90
752;DHT22;360;48.764;9.164;2023-03-11T02:06:35;3.20;99.90
752;DHT22;360;48.764;9.164;2023-03-11T02:09:03;3.20;99.90
752;DHT22;360;48.764;9.164;2023-03-11T02:11:30;3.20;99.90
752;DHT22;360;48.764;9.164;2023-03-11T02:13:59;3.10;99.90
752;DHT22;360;48.764;9.164;2023-03-11T02:16:27;3.10;99.90
752;DHT22;360;48.764;9.164;2023-03-11T02:18:54;3.10;99.90
752;DHT22;360;48.764;9.164;2023-03-11T02:21:25;3.10;99.90
752;DHT22;360;48.764;9.164;2023-03-11T02:23:58;2.90;99.90
752;DHT22;360;48.764;9.164;2023-03-11T02:26:31;2.90;99.90
752;DHT22;360;48.764;9.164;2023-03-11T02:29:03;2.80;99.90
752;DHT22;360;48.764;9.164;2023-03-11T02:31:32;2.80;99.90
752;DHT22;360;48.764;9.164;2023-03-11T02:34:01;2.90;99.90
752;DHT22;360;48.764;9.164;2023-03-11T02:36:31;2.80;99.90
752;DHT22;360;48.764;9.164;2023-03-11T02:38:58;2.60;99.90
752;DHT22;360;48.764;9.164;2023-03-11T02:41:26;2.60;99.90
752;DHT22;360;48.764;9.164;2023-03-11T02:43:53;2.60;99.90
752;DHT22;360;48.764;9.164;2023-03-11T02:46:22;2.50;99.90
752;DHT22;360;48.764;9.164;2023-03-11T02:48:49;2.40;99.90
752;DHT22;360;48.764;9.164;2023-03-11T02:51:17;2.60;99.90
752;DHT22;360;48.764;9.164;2023-03-11T02:53:46;2.70;99.90
752;DHT22;360;48.764;9.164;2023-03-11T02:56:14;2.40;99.90
752;DHT22;360;48.764;9.164;2023-03-11T02:58:41;2.50;99.90
752;DHT22;360;48.764;9.164;2023-03-11T03:01:08;2.40;99.90
752;DHT22;360;48.764;9.164;2023-03-11T03:03:36;2.50;99.90
752;DHT22;360;48.764;9.164;2023-03-11T03:06:04;2.50;99.90
752;DHT22;360;48.764;9.164;2023-03-11T03:08:31;2.60;99.90
752;DHT22;360;48.764;9.164;2023-03-11T03:10:58;2.40;99.90
752;DHT22;360;48.764;9.164;2023-03-11T03:13:25;2.60;99.90
752;DHT22;360;48.764;9.164;2023-03-11T03:15:52;2.20;99.90
752;DHT22;360;48.764;9.164;2023-03-11T03:18:19;2.30;99.90
752;DHT22;360;48.764;9.164;2023-03-11T03:20:47;2.10;99.90
752;DHT22;360;48.764;9.164;2023-03-11T03:23:14;2.00;99.90
752;DHT22;360;48.764;9.164;2023-03-11T03:25:41;2.20;99.90
752;DHT22;360;48.764;9.164;2023-03-11T03:28:09;2.10;99.90
752;DHT22;360;48.764;9.164;2023-03-11T03:30:36;2.10;99.90
752;DHT22;360;48.764;9.164;2023-03-11T03:33:03;2.10;99.90
752;DHT22;360;48.764;9.164;2023-03-11T03:35:31;2.10;99.90
752;DHT22;360;48.764;9.164;2023-03-11T03:38:00;2.30;99.90
752;DHT22;360;48.764;9.164;2023-03-11T03:40:27;2.20;99.90
752;DHT22;360;48.764;9.164;2023-03-11T03:42:53;2.40;99.90
752;DHT22;360;48.764;9.164;2023-03-11T03:45:20;2.10;99.90
752;DHT22;360;48.764;9.164;2023-03-11T03:47:47;1.90;99.90
752;DHT22;360;48.764;9.164;2023-03-11T03:50:14;1.90;99.90
752;DHT22;360;48.764;9.164;2023-03-11T03:52:40;2.10;99.90
752;DHT22;360;48.764;9.164;2023-03-11T03:55:09;1.80;99.90
752;DHT22;360;48.764;9.164;2023-03-11T03:57:36;1.80;1.00
752;DHT22;360;48.764;9.164;2023-03-11T04:00:04;2.20;99.90
752;DHT22;360;48.764;9.164;2023-03-11T04:02:33;2.00;99.90
752;DHT22;360;48.764;9.164;2023-03-11T04:05:00;1.80;1.00
752;DHT22;360;48.764;9.164;2023-03-11T04:07:27;1.70;1.00
752;DHT22;360;48.764;9.164;2023-03-11T04:09:53;1.80;1.00
752;DHT22;360;48.764;9.164;2023-03-11T04:12:22;1.70;1.00
752;DHT22;360;48.764;9.164;2023-03-11T04:14:49;1.70;1.00
752;DHT22;360;48.764;9.164;2023-03-11T04:17:15;1.60;1.00
752;DHT22;360;48.764;9.164;2023-03-11T04:19:43;1.50;1.00
752;DHT22;360;48.764;9.164;2023-03-11T04:22:10;1.60;1.00
752;DHT22;360;48.764;9.164;2023-03-11T04:24:37;1.80;1.00
752;DHT22;360;48.764;9.164;2023-03-11T04:27:04;1.60;1.00
752;DHT22;360;48.764;9.164;2023-03-11T04:29:32;1.70;1.00
752;DHT22;360;48.764;9.164;2023-03-11T04:31:58;1.60;1.00
752;DHT22;360;48.764;9.164;2023-03-11T04:34:25;1.60;1.00
752;DHT22;360;48.764;9.164;2023-03-11T04:36:52;1.70;1.00
752;DHT22;360;48.764;9.164;2023-03-11T04:39:19;1.50;1.00
752;DHT22;360;48.764;9.164;2023-03-11T04:41:46;1.70;1.00
752;DHT22;360;48.764;9.164;2023-03-11T04:44:13;1.50;1.00
752;DHT22;360;48.764;9.164;2023-03-11T04:46:41;1.50;1.00
752;DHT22;360;48.764;9.164;2023-03-11T04:49:08;1.40;1.00
752;DHT22;360;48.764;9.164;2023-03-11T04:51:35;1.40;1.00
752;DHT22;360;48.764;9.164;2023-03-11T04:54:02;1.60;1.00
752;DHT22;360;48.764;9.164;2023-03-11T04:56:29;1.50;1.00
752;DHT22;360;48.764;9.164;2023-03-11T04:58:56;1.50;1.00
752;DHT22;360;48.764;9.164;2023-03-11T05:01:22;1.60;1.00
752;DHT22;360;48.764;9.164;2023-03-11T05:03:51;1.80;1.00
752;DHT22;360;48.764;9.164;2023-03-11T05:06:17;1.60;1.00
752;DHT22;360;48.764;9.164;2023-03-11T05:08:44;1.90;1.00
752;DHT22;360;48.764;9.164;2023-03-11T05:11:11;1.70;1.00
752;DHT22;360;48.764;9.164;2023-03-11T05:13:38;1.50;1.00
752;DHT22;360;48.764;9.164;2023-03-11T05:16:06;1.20;99.90
752;DHT22;360;48.764;9.164;2023-03-11T05:18:32;1.10;99.90
752;DHT22;360;48.764;9.164;2023-03-11T05:21:01;1.20;99.90
752;DHT22;360;48.764;9.164;2023-03-11T05:23:27;1.10;99.90
752;DHT22;360;48.764;9.164;2023-03-11T05:25:54;1.10;99.90
752;DHT22;360;48.764;9.164;2023-03-11T05:28:21;1.20;99.90
752;DHT22;360;48.764;9.164;2023-03-11T05:30:48;1.40;84.60
752;DHT22;360;48.764;9.164;2023-03-11T05:33:15;1.40;1.00
752;DHT22;360;48.764;9.164;2023-03-11T05:35:41;1.50;77.70
752;DHT22;360;48.764;9.164;2023-03-11T05:38:10;1.60;1.00
752;DHT22;360;48.764;9.164;2023-03-11T05:40:36;1.60;1.00
752;DHT22;360;48.764;9.164;2023-03-11T05:43:03;1.60;1.00
752;DHT22;360;48.764;9.164;2023-03-11T05:45:30;1.70;1.00
752;DHT22;360;48.764;9.164;2023-03-11T05:47:57;1.70;1.00
752;DHT22;360;48.764;9.164;2023-03-11T05:50:24;1.70;1.00
752;DHT22;360;48.764;9.164;2023-03-11T05:52:50;1.50;1.00
752;DHT22;360;48.764;9.164;2023-03-11T05:55:19;1.40;1.00
752;DHT22;360;48.764;9.164;2023-03-11T05:57:45;1.50;1.00
752;DHT22;360;48.764;9.164;2023-03-11T06:00:13;1.40;99.90
752;DHT22;360;48.764;9.164;2023-03-11T06:02:40;1.30;99.90
752;DHT22;360;48.764;9.164;2023-03-11T06:05:08;1.40;99.90
752;DHT22;360;48.764;9.164;2023-03-11T06:07:35;1.30;99.90
752;DHT22;360;48.764;9.164;2023-03-11T06:10:03;1.40;99.90
752;DHT22;360;48.764;9.164;2023-03-11T06:12:32;1.40;99.90
752;DHT22;360;48.764;9.164;2023-03-11T06:14:59;1.40;99.90
752;DHT22;360;48.764;9.164;2023-03-11T06:17:26;1.30;99.90
752;DHT22;360;48.764;9.164;2023-03-11T06:19:53;1.20;99.90
752;DHT22;360;48.764;9.164;2023-03-11T06:22:20;1.20;99.90
752;DHT22;360;48.764;9.164;2023-03-11T06:24:47;1.10;99.90
752;DHT22;360;48.764;9.164;2023-03-11T06:27:13;1.10;99.90
752;DHT22;360;48.764;9.164;2023-03-11T06:29:42;1.10;99.90
752;DHT22;360;48.764;9.164;2023-03-11T06:32:08;1.10;99.90
752;DHT22;360;48.764;9.164;2023-03-11T06:34:35;1.10;99.90
752;DHT22;360;48.764;9.164;2023-03-11T06:37:03;1.20;99.90
752;DHT22;360;48.764;9.164;2023-03-11T06:39:29;1.30;99.90
752;DHT22;360;48.764;9.164;2023-03-11T06:41:56;1.60;37.10
752;DHT22;360;48.764;9.164;2023-03-11T06:44:23;1.70;1.00
752;DHT22;360;48.764;9.164;2023-03-11T06:46:51;1.70;1.00
752;DHT22;360;48.764;9.164;2023-03-11T06:49:18;1.60;1.00
752;DHT22;360;48.764;9.164;2023-03-11T06:51:45;1.60;1.00
752;DHT22;360;48.764;9.164;2023-03-11T06:54:12;1.60;1.00
752;DHT22;360;48.764;9.164;2023-03-11T06:56:39;1.70;1.00
752;DHT22;360;48.764;9.164;2023-03-11T06:59:05;1.60;1.00
752;DHT22;360;48.764;9.164;2023-03-11T07:01:32;1.70;1.00
752;DHT22;360;48.764;9.164;2023-03-11T07:04:00;1.60;1.00
752;DHT22;360;48.764;9.164;2023-03-11T07:06:27;1.60;1.00
752;DHT22;360;48.764;9.164;2023-03-11T07:08:54;1.70;1.00
752;DHT22;360;48.764;9.164;2023-03-11T07:11:23;1.80;1.00
752;DHT22;360;48.764;9.164;2023-03-11T07:13:50;1.70;1.00
752;DHT22;360;48.764;9.164;2023-03-11T07:16:18;1.70;1.00
752;DHT22;360;48.764;9.164;2023-03-11T07:18:47;2.10;1.00
752;DHT22;360;48.764;9.164;2023-03-11T07:21:17;1.90;1.00
752;DHT22;360;48.764;9.164;2023-03-11T07:23:44;1.90;1.00
752;DHT22;360;48.764;9.164;2023-03-11T07:26:13;2.00;1.00
752;DHT22;360;48.764;9.164;2023-03-11T07:28:40;2.00;1.00
752;DHT22;360;48.764;9.164;2023-03-11T07:31:08;2.00;1.00
752;DHT22;360;48.764;9.164;2023-03-11T07:33:35;2.00;1.00
752;DHT22;360;48.764;9.164;2023-03-11T07:36:06;2.10;99.90
752;DHT22;360;48.764;9.164;2023-03-11T07:38:36;2.40;1.00
752;DHT22;360;48.764;9.164;2023-03-11T07:41:03;2.40;99.90
752;DHT22;360;48.764;9.164;2023-03-11T07:43:30;2.20;99.90
752;DHT22;360;48.764;9.164;2023-03-11T07:46:05;2.20;99.90
752;DHT22;360;48.764;9.164;2023-03-11T07:48:32;2.90;99.90
752;DHT22;360;48.764;9.164;2023-03-11T07:51:01;2.60;99.90
752;DHT22;360;48.764;9.164;2023-03-11T07:53:28;2.40;99.90
752;DHT22;360;48.764;9.164;2023-03-11T07:55:57;2.60;99.90
752;DHT22;360;48.764;9.164;2023-03-11T07:58:24;2.50;99.90
752;DHT22;360;48.764;9.164;2023-03-11T08:00:52;2.30;99.90
752;DHT22;360;48.764;9.164;2023-03-11T08:03:21;2.40;99.90
752;DHT22;360;48.764;9.164;2023-03-11T08:05:48;2.60;99.90
752;DHT22;360;48.764;9.164;2023-03-11T08:08:15;2.80;99.90
752;DHT22;360;48.764;9.164;2023-03-11T08:10:42;2.80;99.90
752;DHT22;360;48.764;9.164;2023-03-11T08:13:10;2.70;99.90
752;DHT22;360;48.764;9.164;2023-03-11T08:15:37;2.70;99.90
752;DHT22;360;48.764;9.164;2023-03-11T08:18:04;2.70;99.90
752;DHT22;360;48.764;9.164;2023-03-11T08:20:31;2.60;99.90
752;DHT22;360;48.764;9.164;2023-03-11T08:22:58;2.70;99.90
752;DHT22;360;48.764;9.164;2023-03-11T08:25:25;2.70;99.90
752;DHT22;360;48.764;9.164;2023-03-11T08:27:52;2.80;99.90
752;DHT22;360;48.764;9.164;2023-03-11T08:30:21;3.10;99.90
752;DHT22;360;48.764;9.164;2023-03-11T08:32:48;3.20;99.90
752;DHT22;360;48.764;9.164;2023-03-11T08:35:15;3.00;99.90
752;DHT22;360;48.764;9.164;2023-03-11T08:37:42;3.20;99.90
752;DHT22;360;48.764;9.164;2023-03-11T08:40:10;3.20;99.90
752;DHT22;360;48.764;9.164;2023-03-11T08:42:37;3.40;99.90
752;DHT22;360;48.764;9.164;2023-03-11T08:45:05;3.50;99.90
752;DHT22;360;48.764;9.164;2023-03-11T08:47:34;3.30;99.90
752;DHT22;360;48.764;9.164;2023-03-11T08:50:02;3.40;99.90
752;DHT22;360;48.764;9.164;2023-03-11T08:52:29;3.20;99.90
752;DHT22;360;48.764;9.164;2023-03-11T08:54:56;3.50;99.90
752;DHT22;360;48.764;9.164;2023-03-11T08:57:22;3.80;99.90
752;DHT22;360;48.764;9.164;2023-03-11T08:59:49;3.80;99.90
752;DHT22;360;48.764;9.164;2023-03-11T09:02:16;4.00;99.90
752;DHT22;360;48.764;9.164;2023-03-11T09:04:44;3.90;99.90
752;DHT22;360;48.764;9.164;2023-03-11T09:07:12;4.00;99.90
752;DHT22;360;48.764;9.164;2023-03-11T09:09:39;3.60;99.90
752;DHT22;360;48.764;9.164;2023-03-11T09:12:07;3.70;99.90
752;DHT22;360;48.764;9.164;2023-03-11T09:14:34;3.80;99.90
752;DHT22;360;48.764;9.164;2023-03-11T09:17:01;3.90;99.90
752;DHT22;360;48.764;9.164;2023-03-11T09:19:29;4.00;99.90
752;DHT22;360;48.764;9.164;2023-03-11T09:21:58;4.10;99.90
752;DHT22;360;48.764;9.164;2023-03-11T09:24:25;3.90;99.90
752;DHT22;360;48.764;9.164;2023-03-11T09:26:52;3.90;99.90
752;DHT22;360;48.764;9.164;2023-03-11T09:29:19;4.10;99.90
752;DHT22;360;48.764;9.164;2023-03-11T09:31:47;4.10;99.90
752;DHT22;360;48.764;9.164;2023-03-11T09:34:13;3.80;99.90
752;DHT22;360;48.764;9.164;2023-03-11T09:36:41;4.10;99.90
752;DHT22;360;48.764;9.164;2023-03-11T09:39:09;4.30;99.90
752;DHT22;360;48.764;9.164;2023-03-11T18:10:59;4.40;99.90
752;DHT22;360;48.764;9.164;2023-03-11T18:13:26;5.70;1.00
752;DHT22;360;48.764;9.164;2023-03-11T18:15:56;5.70;1.00
752;DHT22;360;48.764;9.164;2023-03-11T18:18:25;5.70;1.00
752;DHT22;360;48.764;9.164;2023-03-11T18:20:52;5.70;1.00
752;DHT22;360;48.764;9.164;2023-03-11T18:23:19;5.70;1.00
752;DHT22;360;48.764;9.164;2023-03-11T18:25:49;5.70;1.00
752;DHT22;360;48.764;9.164;2023-03-11T18:28:16;5.70;1.00
752;DHT22;360;48.764;9.164;2023-03-11T18:30:43;5.70;1.00
752;DHT22;360;48.764;9.164;2023-03-11T18:33:10;5.80;1.00
752;DHT22;360;48.764;9.164;2023-03-11T18:35:38;5.80;1.00
752;DHT22;360;48.764;9.164;2023-03-11T18:38:05;5.90;1.00
752;DHT22;360;48.764;9.164;2023-03-11T18:40:32;5.90;1.00
752;DHT22;360;48.764;9.164;2023-03-11T18:42:59;5.90;1.00
752;DHT22;360;48.764;9.164;2023-03-11T18:45:26;5.90;1.00
752;DHT22;360;48.764;9.164;2023-03-11T18:47:52;5.80;1.00
752;DHT22;360;48.764;9.164;2023-03-11T18:50:19;5.70;1.00
752;DHT22;360;48.764;9.164;2023-03-11T18:52:50;5.70;1.00
